sim
Sign-in with your pilot id or email,
or register
Callsign
Passwort

Schedule Details

Flight Number: EWG9231
Departure: Gothenburg Landvetter Airport (ESGG) at 14:50
Arrival: Dusseldorf International Airport (EDDL) at 16:45
Route: Eurowings Passenger Schedule. Enter filed route here before submitting Pirep.

Weather Information
Getting current METAR information for ESGG 271750Z 17013KT 9999 SCT009 BKN011 08/06 Q0999
Getting current METAR information for EDDL 271750Z 17018KT 9999 FEW038 12/05 Q1004 NOSIG

Schedule Frequency

Route Map